EmailTwitter


Surface observations / United States / KJFK (74486)

Regions: Quebec | Canada | USA | Europe | France | UK | Elsewhere
Station
Display
Info & Location for KJFK (74486) | Help decoding METAR

Weather Conditions observed on 2018/02/24 at 09:51 UTC at NEW YORK/JF KENN, NY (KJFK)

Sky conditions: partly cloudy.

Obstruction(s) to Vision: fog.

Temperature: 6.0 Celsius.

Dewpoint: 6.0 Celsius.

Relative Humidity: 100%

Windchill Factor: 3.

Winds: Southwest at 17 km/h or 9 knots.

Mean Sea level Pressure: 102.12 kilopascals.

Altimeter Setting (QNH): 102.13 kilopascals or 30.16 inches of mercury.

Horizontal visibility: 6.00 statute miles or 9.60 kilometers.

Height of the Ceiling: 4572 metres ( 15000 feet ).

Coded METAR:

KJFK 240951Z 24009KT 6SM BR SCT007 BKN150 BKN200 06/06 A3016 RMK AO2 SLP212

T00560056=